createdAt,value
2018-01-31T01:52:20.459Z,0
2018-01-31T01:52:20.983Z,0
2018-01-31T01:52:38.534Z,0
2018-01-31T01:53:04.635Z,0
2018-01-31T01:53:30.737Z,0
2018-01-31T01:53:56.834Z,0
2018-01-31T01:54:22.929Z,0
2018-01-31T01:54:49.031Z,0
2018-01-31T01:55:15.134Z,0
2018-01-31T01:55:41.232Z,0
2018-01-31T01:56:07.330Z,0
2018-01-31T01:56:33.435Z,0
2018-01-31T01:56:59.547Z,0
2018-01-31T01:57:25.653Z,0
2018-01-31T01:57:51.760Z,0
2018-01-31T01:58:17.853Z,0
2018-01-31T01:58:43.954Z,0
2018-01-31T01:59:10.055Z,0
2018-01-31T01:59:36.154Z,0
2018-01-31T02:00:02.259Z,0
2018-01-31T02:00:28.360Z,0
2018-01-31T02:00:54.456Z,0
2018-01-31T02:01:20.556Z,0
2018-01-31T02:01:46.664Z,0
2018-01-31T02:02:12.768Z,0
2018-01-31T02:02:38.868Z,0
2018-01-31T02:03:04.985Z,0
2018-01-31T02:03:31.097Z,0
2018-01-31T02:03:57.195Z,0
2018-01-31T02:04:23.298Z,0
2018-01-31T02:04:49.397Z,0
2018-01-31T02:05:15.500Z,0
2018-01-31T02:05:41.604Z,0
2018-01-31T02:06:07.698Z,0
2018-01-31T02:06:33.800Z,0
2018-01-31T02:06:59.901Z,0
2018-01-31T02:07:26.001Z,0
2018-01-31T02:07:52.109Z,0
2018-01-31T02:08:18.211Z,0
2018-01-31T02:08:44.325Z,0
2018-01-31T02:09:10.425Z,0
2018-01-31T02:09:36.528Z,0
2018-01-31T02:10:02.625Z,0
2018-01-31T02:10:28.731Z,0
2018-01-31T02:10:54.829Z,0
2018-01-31T02:11:20.935Z,0
2018-01-31T02:11:47.033Z,0
2018-01-31T02:12:13.138Z,0
2018-01-31T02:12:39.238Z,0
2018-01-31T02:13:05.336Z,0
2018-01-31T02:13:31.440Z,0
2018-01-31T02:13:57.551Z,0
2018-01-31T02:14:23.643Z,0
2018-01-31T02:14:49.737Z,0
2018-01-31T02:15:15.858Z,0
2018-01-31T02:15:41.953Z,0
2018-01-31T02:16:08.051Z,0
2018-01-31T02:16:34.155Z,0
2018-01-31T02:17:00.253Z,0
2018-01-31T02:17:26.361Z,0
2018-01-31T02:17:52.462Z,0
2018-01-31T02:18:18.565Z,0
2018-01-31T02:18:44.668Z,0
2018-01-31T02:19:10.762Z,0
2018-01-31T02:19:36.859Z,0
2018-01-31T02:20:02.965Z,0
2018-01-31T02:20:29.066Z,0
2018-01-31T02:20:55.168Z,0
2018-01-31T02:21:21.269Z,0
2018-01-31T02:21:47.385Z,0
2018-01-31T02:22:13.490Z,0
2018-01-31T02:22:39.593Z,0
2018-01-31T02:23:05.693Z,0
2018-01-31T02:23:31.794Z,0
2018-01-31T02:23:57.894Z,0
2018-01-31T02:24:23.997Z,0
2018-01-31T02:24:50.097Z,0
2018-01-31T02:25:16.197Z,0
2018-01-31T02:25:42.313Z,0
2018-01-31T02:26:08.430Z,0
2018-01-31T02:26:34.532Z,0
2018-01-31T02:27:00.637Z,0
2018-01-31T02:27:26.733Z,0
2018-01-31T02:27:52.833Z,0
2018-01-31T02:28:18.934Z,0
2018-01-31T02:28:45.031Z,0
2018-01-31T02:29:11.137Z,0
2018-01-31T02:29:37.253Z,0
2018-01-31T02:30:03.355Z,0
2018-01-31T02:30:29.461Z,0
2018-01-31T02:30:55.575Z,0
2018-01-31T02:31:21.680Z,0
2018-01-31T02:31:47.785Z,0
2018-01-31T02:32:13.882Z,0
2018-01-31T02:32:39.986Z,0
2018-01-31T02:33:06.084Z,0
2018-01-31T02:33:32.183Z,0
2018-01-31T02:33:58.288Z,0
2018-01-31T02:34:24.402Z,0
2018-01-31T02:34:50.503Z,0
2018-01-31T02:35:16.601Z,0
2018-01-31T02:35:42.706Z,0
2018-01-31T02:36:08.809Z,0
2018-01-31T02:36:34.902Z,0
2018-01-31T02:37:01.008Z,0
2018-01-31T02:37:27.106Z,0
2018-01-31T02:37:53.212Z,0
2018-01-31T02:38:19.307Z,0
2018-01-31T02:38:45.406Z,0
2018-01-31T02:39:11.529Z,0
2018-01-31T02:39:37.627Z,0
2018-01-31T02:40:03.730Z,0
2018-01-31T02:40:29.829Z,0
2018-01-31T02:40:55.936Z,0
2018-01-31T02:41:22.037Z,0
2018-01-31T02:41:48.145Z,0
2018-01-31T02:42:14.249Z,0
2018-01-31T02:42:40.346Z,0
2018-01-31T02:43:06.457Z,0
2018-01-31T02:43:32.555Z,0
2018-01-31T02:43:58.651Z,0
2018-01-31T02:44:24.758Z,0
2018-01-31T02:44:50.857Z,0
2018-01-31T02:45:16.952Z,0
2018-01-31T02:45:43.055Z,0
2018-01-31T02:46:09.172Z,0
2018-01-31T02:46:35.275Z,0
2018-01-31T02:47:01.373Z,0
2018-01-31T02:47:27.489Z,0
2018-01-31T02:47:53.604Z,0
2018-01-31T02:48:19.700Z,0
2018-01-31T02:48:45.813Z,0
2018-01-31T02:49:11.912Z,0
2018-01-31T02:49:38.017Z,0
2018-01-31T02:50:04.184Z,0
2018-01-31T02:50:30.273Z,0
2018-01-31T02:50:56.382Z,0
2018-01-31T02:51:22.478Z,0
2018-01-31T02:51:48.581Z,0
2018-01-31T02:52:14.717Z,0
2018-01-31T02:52:40.819Z,0
2018-01-31T02:53:06.945Z,0
2018-01-31T02:53:33.042Z,0
2018-01-31T02:53:59.139Z,0
2018-01-31T02:54:25.236Z,0
2018-01-31T02:54:51.341Z,0
2018-01-31T02:55:17.470Z,0
2018-01-31T02:55:43.569Z,0
2018-01-31T02:56:09.671Z,0
2018-01-31T02:56:35.766Z,0
2018-01-31T02:57:01.865Z,0
2018-01-31T02:57:27.969Z,0
2018-01-31T02:57:54.065Z,0
2018-01-31T02:58:20.167Z,0
2018-01-31T02:58:46.274Z,0
2018-01-31T02:59:12.399Z,0
2018-01-31T02:59:38.503Z,0
2018-01-31T03:00:04.601Z,0
2018-01-31T03:00:30.723Z,0
2018-01-31T03:00:56.856Z,0
2018-01-31T03:01:22.955Z,0
2018-01-31T03:01:49.061Z,0
2018-01-31T03:02:15.161Z,0
2018-01-31T03:02:41.267Z,0
2018-01-31T03:03:07.366Z,0
2018-01-31T03:03:33.469Z,0
2018-01-31T03:03:59.571Z,0
2018-01-31T03:04:25.666Z,0
2018-01-31T03:04:51.771Z,0
2018-01-31T03:05:17.873Z,0
2018-01-31T03:05:43.970Z,0
2018-01-31T03:06:10.071Z,0
2018-01-31T03:06:36.171Z,0
2018-01-31T03:07:02.269Z,0
2018-01-31T03:07:28.373Z,0
2018-01-31T03:07:54.477Z,0
2018-01-31T03:08:20.580Z,0
2018-01-31T03:08:46.677Z,0
2018-01-31T03:09:12.775Z,0
2018-01-31T03:09:38.877Z,0
2018-01-31T03:10:04.978Z,0
2018-01-31T03:10:31.079Z,0
2018-01-31T03:10:57.174Z,0
2018-01-31T03:11:23.272Z,0
2018-01-31T03:11:49.371Z,0
2018-01-31T03:12:15.472Z,0
2018-01-31T03:12:41.581Z,0
2018-01-31T03:13:08.034Z,0
2018-01-31T03:13:34.476Z,0
2018-01-31T03:14:01.637Z,0
2018-01-31T03:14:29.109Z,0
2018-01-31T03:14:55.318Z,0
2018-01-31T03:15:21.584Z,0
2018-01-31T03:15:48.246Z,0
2018-01-31T03:16:15.029Z,0
2018-01-31T03:16:41.054Z,0
2018-01-31T03:17:07.425Z,0
2018-01-31T03:17:34.028Z,0
2018-01-31T03:18:00.491Z,0
2018-01-31T03:18:26.604Z,0
2018-01-31T03:18:53.116Z,0
2018-01-31T03:19:19.728Z,0
2018-01-31T03:19:45.969Z,0
2018-01-31T03:20:12.419Z,0
2018-01-31T03:20:38.517Z,0
2018-01-31T03:21:04.998Z,0
2018-01-31T03:21:31.512Z,0
2018-01-31T03:21:58.539Z,0
2018-01-31T03:22:24.726Z,0
2018-01-31T03:22:50.792Z,0
2018-01-31T03:23:17.035Z,0
2018-01-31T03:23:43.454Z,0
2018-01-31T03:24:09.993Z,0
2018-01-31T03:24:36.015Z,0
2018-01-31T03:25:02.109Z,0
2018-01-31T03:25:29.078Z,0
2018-01-31T03:25:55.201Z,0
2018-01-31T03:26:22.144Z,0
2018-01-31T03:26:48.290Z,0
2018-01-31T03:27:14.425Z,0
2018-01-31T03:27:41.134Z,0
2018-01-31T03:28:07.869Z,0
2018-01-31T03:28:33.906Z,0
2018-01-31T03:29:00.023Z,0
2018-01-31T03:29:26.832Z,0
2018-01-31T03:29:53.330Z,0
2018-01-31T03:30:19.863Z,0
2018-01-31T03:30:46.328Z,0
2018-01-31T03:31:12.742Z,0
2018-01-31T03:31:39.250Z,0
2018-01-31T03:32:05.583Z,0
2018-01-31T03:32:31.885Z,0
2018-01-31T03:32:57.993Z,0
2018-01-31T03:33:24.107Z,0
2018-01-31T03:33:50.248Z,0
2018-01-31T03:34:16.370Z,0
2018-01-31T03:34:42.675Z,0
2018-01-31T03:35:08.741Z,0
2018-01-31T03:35:34.873Z,0
2018-01-31T03:36:01.039Z,0
2018-01-31T03:36:27.161Z,0
2018-01-31T03:36:53.359Z,0
2018-01-31T03:37:19.668Z,0
2018-01-31T03:37:45.797Z,0
2018-01-31T03:38:11.970Z,0
2018-01-31T03:38:38.100Z,0
2018-01-31T03:39:04.195Z,0
2018-01-31T03:39:30.297Z,0
2018-01-31T03:39:56.440Z,0
2018-01-31T03:40:22.660Z,0
2018-01-31T03:40:48.698Z,0
2018-01-31T03:41:14.919Z,0
2018-01-31T03:41:41.037Z,0
2018-01-31T03:42:07.336Z,0
2018-01-31T03:42:33.447Z,0
2018-01-31T03:42:59.580Z,0
2018-01-31T03:43:25.726Z,0
2018-01-31T03:43:51.853Z,0
2018-01-31T03:44:17.950Z,0
2018-01-31T03:44:44.056Z,0
2018-01-31T03:45:10.203Z,0
2018-01-31T03:45:36.356Z,0
2018-01-31T03:46:02.504Z,0
2018-01-31T03:46:28.973Z,0
2018-01-31T03:46:55.073Z,0
2018-01-31T03:47:21.190Z,0
2018-01-31T03:47:47.296Z,0
2018-01-31T03:48:13.448Z,0
2018-01-31T03:48:39.580Z,0
2018-01-31T03:49:05.831Z,0
2018-01-31T03:49:32.095Z,0
2018-01-31T03:49:58.227Z,0
2018-01-31T03:50:24.455Z,0
2018-01-31T03:50:50.690Z,0
2018-01-31T03:51:16.858Z,0
2018-01-31T03:51:42.980Z,0
2018-01-31T03:52:09.177Z,0
2018-01-31T03:52:35.281Z,0
2018-01-31T03:53:01.435Z,0
2018-01-31T03:53:27.556Z,0
2018-01-31T03:53:53.664Z,0
2018-01-31T03:54:19.929Z,0
2018-01-31T03:54:46.077Z,0
2018-01-31T03:55:12.312Z,0
2018-01-31T03:55:38.624Z,0
2018-01-31T03:56:04.757Z,0
2018-01-31T03:56:31.249Z,0
2018-01-31T03:56:57.350Z,0
2018-01-31T03:57:23.656Z,0
2018-01-31T03:57:49.815Z,0
2018-01-31T03:58:15.989Z,0
2018-01-31T03:58:42.109Z,0
2018-01-31T03:59:08.370Z,0
2018-01-31T03:59:34.461Z,0
2018-01-31T04:00:00.584Z,0
2018-01-31T04:00:26.708Z,0
2018-01-31T04:00:52.983Z,0
2018-01-31T04:01:19.448Z,0
2018-01-31T04:01:45.701Z,0
2018-01-31T04:02:11.845Z,0
2018-01-31T04:02:37.946Z,0
2018-01-31T04:03:04.059Z,0
2018-01-31T04:03:30.208Z,0
2018-01-31T04:03:56.482Z,0
2018-01-31T04:04:22.787Z,0
2018-01-31T04:04:48.957Z,0
2018-01-31T04:05:15.102Z,0
2018-01-31T04:05:41.412Z,0
2018-01-31T04:06:07.572Z,0
2018-01-31T04:06:33.727Z,0
2018-01-31T04:06:59.924Z,0
2018-01-31T04:07:26.028Z,0
2018-01-31T04:07:52.198Z,0
2018-01-31T04:08:18.367Z,0
2018-01-31T04:08:44.494Z,0
2018-01-31T04:09:10.671Z,0
2018-01-31T04:09:36.769Z,0
2018-01-31T04:10:02.869Z,0
2018-01-31T04:10:28.981Z,0
2018-01-31T04:10:55.079Z,0
2018-01-31T04:11:21.414Z,0
2018-01-31T04:11:47.507Z,0
2018-01-31T04:12:13.798Z,0
2018-01-31T04:12:39.949Z,0
2018-01-31T04:13:06.064Z,0
2018-01-31T04:13:32.179Z,0
2018-01-31T04:13:58.612Z,0
2018-01-31T04:14:24.663Z,0
2018-01-31T04:14:50.789Z,0
2018-01-31T04:15:16.971Z,0
2018-01-31T04:15:43.094Z,0
2018-01-31T04:16:09.196Z,0
2018-01-31T04:16:35.439Z,0
2018-01-31T04:17:01.538Z,0
2018-01-31T04:17:27.673Z,0
2018-01-31T04:17:53.831Z,0
2018-01-31T04:18:19.966Z,0
2018-01-31T04:18:46.095Z,0
2018-01-31T04:19:12.294Z,0
2018-01-31T04:19:38.416Z,0
2018-01-31T04:20:04.540Z,0
2018-01-31T04:20:30.706Z,0
2018-01-31T04:20:56.823Z,0
2018-01-31T04:21:22.913Z,0
2018-01-31T04:21:49.232Z,0
2018-01-31T04:22:15.381Z,0
2018-01-31T04:22:41.540Z,0
2018-01-31T04:23:07.664Z,0
2018-01-31T04:23:33.800Z,0
2018-01-31T04:23:59.957Z,0
2018-01-31T04:24:26.371Z,0
2018-01-31T04:24:52.436Z,0
2018-01-31T04:25:18.576Z,0
2018-01-31T04:25:44.863Z,0
2018-01-31T04:26:10.906Z,0
2018-01-31T04:26:37.109Z,0
2018-01-31T04:27:03.341Z,0
2018-01-31T04:27:29.422Z,0
2018-01-31T04:27:55.639Z,0
2018-01-31T04:28:21.817Z,0
2018-01-31T04:28:47.918Z,0
2018-01-31T04:29:14.034Z,0
2018-01-31T04:29:40.145Z,0
2018-01-31T04:30:06.268Z,0
2018-01-31T04:30:32.380Z,0
2018-01-31T04:30:58.471Z,0
2018-01-31T04:31:24.579Z,0
2018-01-31T04:31:50.684Z,0
2018-01-31T04:32:16.809Z,0
2018-01-31T04:32:42.909Z,0
2018-01-31T04:33:09.016Z,0
2018-01-31T04:33:35.137Z,0
2018-01-31T04:34:01.237Z,0
2018-01-31T04:34:27.351Z,0
2018-01-31T04:34:53.465Z,0
2018-01-31T04:35:19.584Z,0
2018-01-31T04:35:45.690Z,0
2018-01-31T04:36:11.804Z,0
2018-01-31T04:36:37.901Z,0
2018-01-31T04:37:03.998Z,0
2018-01-31T04:37:30.111Z,0
2018-01-31T04:37:56.219Z,0
2018-01-31T04:38:22.331Z,0
2018-01-31T04:38:48.469Z,0
2018-01-31T04:39:14.572Z,0
2018-01-31T04:39:40.776Z,0
2018-01-31T04:40:06.814Z,0
2018-01-31T04:40:32.920Z,0
2018-01-31T04:40:59.062Z,0
2018-01-31T04:41:25.186Z,0
2018-01-31T04:41:51.316Z,0
2018-01-31T04:42:17.654Z,0
2018-01-31T04:42:43.782Z,0
2018-01-31T04:43:10.002Z,0
2018-01-31T04:43:36.313Z,0
2018-01-31T04:44:02.381Z,0
2018-01-31T04:44:28.488Z,0
2018-01-31T04:44:54.587Z,0
2018-01-31T04:45:20.704Z,0
2018-01-31T04:45:46.802Z,0
2018-01-31T04:46:12.908Z,0
2018-01-31T04:46:39.006Z,0
2018-01-31T04:47:05.107Z,0
2018-01-31T04:47:31.209Z,0
2018-01-31T04:47:57.306Z,0
2018-01-31T04:48:23.408Z,0
2018-01-31T04:48:49.503Z,0
2018-01-31T04:49:15.606Z,0
2018-01-31T04:49:41.727Z,0
2018-01-31T04:50:07.828Z,0
2018-01-31T04:50:33.932Z,0
2018-01-31T04:51:00.028Z,0
2018-01-31T04:51:26.129Z,0
2018-01-31T04:51:52.232Z,0
2018-01-31T04:52:18.353Z,0
2018-01-31T04:52:44.453Z,0
2018-01-31T04:53:10.550Z,0
2018-01-31T04:53:36.674Z,0
2018-01-31T04:54:02.790Z,0
2018-01-31T04:54:28.886Z,0
2018-01-31T04:54:55.009Z,0
2018-01-31T04:55:21.105Z,0
2018-01-31T04:55:47.210Z,0
2018-01-31T04:56:13.312Z,0
2018-01-31T04:56:39.414Z,0
2018-01-31T04:57:05.525Z,0
2018-01-31T04:57:31.625Z,0
2018-01-31T04:57:57.721Z,0
2018-01-31T04:58:23.820Z,0
2018-01-31T04:58:49.922Z,0
2018-01-31T04:59:16.021Z,0
2018-01-31T04:59:42.127Z,0
2018-01-31T05:00:08.217Z,0
2018-01-31T05:00:34.320Z,0
2018-01-31T05:01:00.419Z,0
2018-01-31T05:01:26.520Z,0
2018-01-31T05:01:52.625Z,0
2018-01-31T05:02:18.721Z,0
2018-01-31T05:02:44.822Z,0
2018-01-31T05:03:10.922Z,0
2018-01-31T05:03:37.046Z,0
2018-01-31T05:04:03.150Z,0
2018-01-31T05:04:29.254Z,0
2018-01-31T05:04:55.356Z,0
2018-01-31T05:05:21.456Z,0
2018-01-31T05:05:47.552Z,0
2018-01-31T05:06:13.653Z,0
2018-01-31T05:06:39.753Z,0
2018-01-31T05:07:05.853Z,0
2018-01-31T05:07:31.956Z,0
2018-01-31T05:07:58.056Z,0
2018-01-31T05:08:24.169Z,0
2018-01-31T05:08:50.274Z,0
2018-01-31T05:09:16.379Z,0
2018-01-31T05:09:42.481Z,0
2018-01-31T05:10:08.581Z,0
2018-01-31T05:10:34.690Z,0
2018-01-31T05:11:00.807Z,0
2018-01-31T05:11:26.908Z,0
2018-01-31T05:11:53.007Z,0
2018-01-31T05:12:19.109Z,0
2018-01-31T05:12:45.210Z,0
2018-01-31T05:13:11.335Z,0
2018-01-31T05:13:37.424Z,0
2018-01-31T05:14:03.523Z,0
2018-01-31T05:14:29.627Z,0
2018-01-31T05:14:55.725Z,0
2018-01-31T05:15:21.824Z,0
2018-01-31T05:15:47.924Z,0
2018-01-31T05:16:14.043Z,0
2018-01-31T05:16:40.145Z,0
2018-01-31T05:17:06.246Z,0
2018-01-31T05:17:32.363Z,0
2018-01-31T05:17:58.479Z,0
2018-01-31T05:18:24.584Z,0
2018-01-31T05:18:50.695Z,0
2018-01-31T05:19:16.813Z,0
2018-01-31T05:19:42.908Z,0
2018-01-31T05:20:09.006Z,0
2018-01-31T05:20:35.111Z,0
2018-01-31T05:21:01.211Z,0
2018-01-31T05:21:27.317Z,0
2018-01-31T05:21:53.420Z,0
2018-01-31T05:22:19.516Z,0
2018-01-31T05:22:45.671Z,0
2018-01-31T05:23:11.726Z,0
2018-01-31T05:23:37.839Z,0
2018-01-31T05:24:03.941Z,0
2018-01-31T05:24:30.041Z,0
2018-01-31T05:24:56.145Z,0
2018-01-31T05:25:22.269Z,0
2018-01-31T05:25:48.366Z,0
2018-01-31T05:26:14.466Z,0
2018-01-31T05:26:40.571Z,0
2018-01-31T05:27:06.675Z,0
2018-01-31T05:27:32.771Z,0
2018-01-31T05:27:58.869Z,0
2018-01-31T05:28:24.972Z,0
2018-01-31T05:28:51.070Z,0
2018-01-31T05:29:17.166Z,0
2018-01-31T05:29:43.273Z,0
2018-01-31T05:30:09.373Z,0
2018-01-31T05:30:35.477Z,0
2018-01-31T05:31:01.597Z,0
2018-01-31T05:31:27.693Z,0
2018-01-31T05:31:53.791Z,0
2018-01-31T05:32:19.899Z,0
2018-01-31T05:32:45.992Z,0
2018-01-31T05:33:12.091Z,0
2018-01-31T05:33:38.195Z,0
2018-01-31T05:34:04.300Z,0
2018-01-31T05:34:30.400Z,0
2018-01-31T05:34:56.502Z,0
2018-01-31T05:35:22.604Z,0
2018-01-31T05:35:48.700Z,0
2018-01-31T05:36:14.806Z,0
2018-01-31T05:36:40.926Z,0
2018-01-31T05:37:07.027Z,0
2018-01-31T05:37:33.124Z,0
2018-01-31T05:37:59.225Z,0
2018-01-31T05:38:25.327Z,0
2018-01-31T05:38:51.447Z,0
2018-01-31T05:39:17.554Z,0
2018-01-31T05:39:43.667Z,0
2018-01-31T05:40:09.765Z,0
2018-01-31T05:40:35.904Z,0
2018-01-31T05:41:02.071Z,0
2018-01-31T05:41:28.125Z,0
2018-01-31T05:41:54.225Z,0
2018-01-31T05:42:20.333Z,0
2018-01-31T05:42:46.433Z,0
2018-01-31T05:43:12.548Z,0
2018-01-31T05:43:38.653Z,0
2018-01-31T05:44:04.748Z,0
2018-01-31T05:44:30.854Z,0
2018-01-31T05:44:56.953Z,0
2018-01-31T05:45:23.048Z,0
2018-01-31T05:45:49.154Z,0
2018-01-31T05:46:15.255Z,0
2018-01-31T05:46:41.373Z,0
2018-01-31T05:47:07.473Z,0
2018-01-31T05:47:33.574Z,0
2018-01-31T05:47:59.673Z,0
2018-01-31T05:48:25.775Z,0
2018-01-31T05:48:51.876Z,0
2018-01-31T05:49:17.983Z,0
2018-01-31T05:49:44.087Z,0
2018-01-31T05:50:10.200Z,0
2018-01-31T05:50:36.303Z,0
2018-01-31T05:51:02.401Z,0
2018-01-31T05:51:28.501Z,0
2018-01-31T05:51:54.603Z,0
2018-01-31T05:52:20.700Z,0
2018-01-31T05:52:46.800Z,0
2018-01-31T05:53:12.904Z,0
2018-01-31T05:53:39.001Z,0
2018-01-31T05:54:05.102Z,0
2018-01-31T05:54:31.202Z,0
2018-01-31T05:54:57.309Z,0
2018-01-31T05:55:23.410Z,0
2018-01-31T05:55:49.513Z,0
2018-01-31T05:56:15.615Z,0
2018-01-31T05:56:41.714Z,0
2018-01-31T05:57:07.820Z,0
2018-01-31T05:57:33.920Z,0
2018-01-31T05:58:00.028Z,0
2018-01-31T05:58:26.147Z,0
2018-01-31T05:58:52.243Z,0
2018-01-31T05:59:18.370Z,0
2018-01-31T05:59:44.470Z,0
2018-01-31T06:00:10.575Z,0
2018-01-31T06:00:36.669Z,0
2018-01-31T06:01:02.767Z,0
2018-01-31T06:01:28.875Z,0
2018-01-31T06:01:54.987Z,0
2018-01-31T06:02:21.091Z,0
2018-01-31T06:02:47.193Z,0
2018-01-31T06:03:13.295Z,0
2018-01-31T06:03:39.395Z,0
2018-01-31T06:04:05.498Z,0
2018-01-31T06:04:31.602Z,0
2018-01-31T06:04:57.707Z,0
2018-01-31T06:05:23.824Z,0
2018-01-31T06:05:49.925Z,0
2018-01-31T06:06:16.026Z,0
2018-01-31T06:06:42.136Z,0
2018-01-31T06:07:08.246Z,0
2018-01-31T06:07:34.352Z,0
2018-01-31T06:08:00.449Z,0
2018-01-31T06:08:26.551Z,0
2018-01-31T06:08:52.652Z,0
2018-01-31T06:09:18.768Z,0
2018-01-31T06:09:44.871Z,0
2018-01-31T06:10:10.977Z,0
2018-01-31T06:10:37.078Z,0
2018-01-31T06:11:03.175Z,0
2018-01-31T06:11:29.273Z,0
2018-01-31T06:11:55.381Z,0
2018-01-31T06:12:21.482Z,0
2018-01-31T06:12:47.579Z,0
2018-01-31T06:13:13.684Z,0
2018-01-31T06:13:39.778Z,0
2018-01-31T06:14:05.884Z,0
2018-01-31T06:14:31.975Z,0
2018-01-31T06:14:58.082Z,0
2018-01-31T06:15:24.186Z,0
2018-01-31T06:15:50.284Z,0
2018-01-31T06:16:16.391Z,0
2018-01-31T06:16:42.490Z,0
2018-01-31T06:17:08.591Z,0
2018-01-31T06:17:34.686Z,0
2018-01-31T06:18:00.784Z,0
2018-01-31T06:18:26.939Z,0
2018-01-31T06:18:53.038Z,0
2018-01-31T06:19:19.147Z,0
2018-01-31T06:19:45.246Z,0
2018-01-31T06:20:11.345Z,0
2018-01-31T06:20:37.443Z,0
2018-01-31T06:21:03.547Z,0
2018-01-31T06:21:29.652Z,0
2018-01-31T06:21:55.759Z,0
2018-01-31T06:22:21.862Z,0
2018-01-31T06:22:47.981Z,0
2018-01-31T06:23:14.078Z,0
2018-01-31T06:23:40.177Z,0
2018-01-31T06:24:06.292Z,0
2018-01-31T06:24:32.389Z,0
2018-01-31T06:24:58.487Z,0
2018-01-31T06:25:24.587Z,0
2018-01-31T06:25:50.691Z,0
2018-01-31T06:26:16.807Z,0
2018-01-31T06:26:42.945Z,0
2018-01-31T06:27:09.051Z,0
2018-01-31T06:27:35.188Z,0
2018-01-31T06:28:01.291Z,0
2018-01-31T06:28:27.387Z,0
2018-01-31T06:28:53.506Z,0
2018-01-31T06:29:19.603Z,0
2018-01-31T06:29:45.704Z,0
2018-01-31T06:30:11.823Z,0
2018-01-31T06:30:37.923Z,0
2018-01-31T06:31:04.028Z,0
2018-01-31T06:31:30.163Z,0
2018-01-31T06:31:56.229Z,0
2018-01-31T06:32:22.334Z,0
2018-01-31T06:32:48.434Z,0
2018-01-31T06:33:14.531Z,0
2018-01-31T06:33:40.633Z,0
2018-01-31T06:34:06.737Z,0
2018-01-31T06:34:32.844Z,0
2018-01-31T06:34:58.940Z,0
2018-01-31T06:35:25.046Z,0
2018-01-31T06:35:51.142Z,0
2018-01-31T06:36:17.246Z,0
2018-01-31T06:36:43.364Z,0
2018-01-31T06:37:09.469Z,0
2018-01-31T06:37:35.573Z,0
2018-01-31T06:38:01.677Z,0
2018-01-31T06:38:27.776Z,0
2018-01-31T06:38:53.874Z,0
2018-01-31T06:39:19.982Z,0
2018-01-31T06:39:46.088Z,0
2018-01-31T06:40:12.190Z,0
2018-01-31T06:40:38.295Z,0
2018-01-31T06:41:04.395Z,0
2018-01-31T06:41:30.495Z,0
2018-01-31T06:41:56.619Z,0
2018-01-31T06:42:22.736Z,0
2018-01-31T06:42:48.891Z,0
2018-01-31T06:43:14.969Z,0
2018-01-31T06:43:41.066Z,0
2018-01-31T06:44:07.166Z,0
2018-01-31T06:44:33.265Z,0
2018-01-31T06:44:59.364Z,0
2018-01-31T06:45:25.466Z,0
2018-01-31T06:45:51.572Z,0
2018-01-31T06:46:17.670Z,0
2018-01-31T06:46:43.777Z,0
2018-01-31T06:47:09.880Z,0
2018-01-31T06:47:35.982Z,0
2018-01-31T06:48:02.079Z,0
2018-01-31T06:48:28.204Z,0
2018-01-31T06:48:54.307Z,0
2018-01-31T06:49:20.416Z,0
2018-01-31T06:49:46.509Z,0
2018-01-31T06:50:12.605Z,0
2018-01-31T06:50:38.711Z,0
2018-01-31T06:51:04.811Z,0
2018-01-31T06:51:30.912Z,0
2018-01-31T06:51:57.013Z,0
2018-01-31T06:52:23.115Z,0
2018-01-31T06:52:49.230Z,0
2018-01-31T06:53:15.334Z,0
2018-01-31T06:53:41.431Z,0
2018-01-31T06:54:07.532Z,0
2018-01-31T06:54:33.636Z,0
2018-01-31T06:54:59.737Z,0
2018-01-31T06:55:25.840Z,0
2018-01-31T06:55:51.948Z,0
2018-01-31T06:56:18.082Z,0
2018-01-31T06:56:44.186Z,0
2018-01-31T06:57:10.292Z,0
2018-01-31T06:57:36.388Z,0
2018-01-31T06:58:02.493Z,0
2018-01-31T06:58:28.611Z,0
2018-01-31T06:58:54.714Z,0
2018-01-31T06:59:20.811Z,0
2018-01-31T06:59:46.916Z,0
2018-01-31T07:00:13.013Z,0
2018-01-31T07:00:39.117Z,0
2018-01-31T07:01:05.220Z,0
2018-01-31T07:01:31.320Z,0
2018-01-31T07:01:57.418Z,0
2018-01-31T07:02:23.526Z,0
2018-01-31T07:02:49.629Z,0
2018-01-31T07:03:15.751Z,0
2018-01-31T07:03:41.848Z,0
2018-01-31T07:04:07.947Z,0
2018-01-31T07:04:34.055Z,0
2018-01-31T07:05:00.171Z,0
2018-01-31T07:05:26.268Z,0
2018-01-31T07:05:52.371Z,0
2018-01-31T07:06:18.476Z,0
2018-01-31T07:06:44.577Z,0
2018-01-31T07:07:10.680Z,0
2018-01-31T07:07:36.780Z,0
2018-01-31T07:08:02.883Z,0
2018-01-31T07:08:28.997Z,0
2018-01-31T07:08:55.100Z,0
2018-01-31T07:09:21.202Z,0
2018-01-31T07:09:47.307Z,0
2018-01-31T07:10:13.406Z,0
2018-01-31T07:10:39.511Z,0
2018-01-31T07:11:05.610Z,0
2018-01-31T07:11:31.706Z,0
2018-01-31T07:11:57.826Z,0
2018-01-31T07:12:23.925Z,0
2018-01-31T07:12:50.031Z,0
2018-01-31T07:13:16.129Z,0
2018-01-31T07:13:42.237Z,0
2018-01-31T07:14:08.341Z,0
2018-01-31T07:14:34.436Z,0
2018-01-31T07:15:00.544Z,0
2018-01-31T07:15:26.644Z,0
2018-01-31T07:15:52.746Z,0
2018-01-31T07:16:18.844Z,0
2018-01-31T07:16:44.950Z,0
2018-01-31T07:17:11.049Z,0
2018-01-31T07:17:37.151Z,0
2018-01-31T07:18:03.254Z,0
2018-01-31T07:18:29.353Z,0
2018-01-31T07:18:55.458Z,5
2018-01-31T07:19:21.556Z,0
2018-01-31T07:19:47.657Z,0
2018-01-31T07:20:13.764Z,0
2018-01-31T07:20:39.864Z,0
2018-01-31T07:21:06.023Z,0
2018-01-31T07:21:32.098Z,5
2018-01-31T07:21:58.193Z,5
2018-01-31T07:22:24.295Z,0
2018-01-31T07:22:50.395Z,0
2018-01-31T07:23:16.495Z,0
2018-01-31T07:23:42.602Z,0
2018-01-31T07:24:08.696Z,0
2018-01-31T07:24:34.814Z,0
2018-01-31T07:25:00.912Z,0
2018-01-31T07:25:27.017Z,0
2018-01-31T07:25:53.117Z,0
2018-01-31T07:26:19.230Z,5
2018-01-31T07:26:45.337Z,5
2018-01-31T07:27:11.444Z,5
2018-01-31T07:27:37.617Z,5
2018-01-31T07:28:03.659Z,0
2018-01-31T07:28:29.758Z,5
2018-01-31T07:28:55.862Z,5
2018-01-31T07:29:21.965Z,5
2018-01-31T07:29:48.068Z,5
2018-01-31T07:30:14.165Z,5
2018-01-31T07:30:40.273Z,10
2018-01-31T07:31:06.372Z,10
2018-01-31T07:31:32.470Z,10
2018-01-31T07:31:58.576Z,10
2018-01-31T07:32:24.673Z,10
2018-01-31T07:32:50.780Z,10
2018-01-31T07:33:16.880Z,10
2018-01-31T07:33:42.982Z,10
2018-01-31T07:34:09.087Z,10
2018-01-31T07:34:35.184Z,5
2018-01-31T07:35:01.290Z,5
2018-01-31T07:35:27.388Z,5
2018-01-31T07:35:53.495Z,5
2018-01-31T07:36:19.593Z,5
2018-01-31T07:36:45.712Z,5
2018-01-31T07:37:11.819Z,10
2018-01-31T07:37:37.916Z,10
2018-01-31T07:38:04.023Z,10
2018-01-31T07:38:30.144Z,10
2018-01-31T07:38:56.240Z,10
2018-01-31T07:39:22.347Z,15
2018-01-31T07:39:48.444Z,15
2018-01-31T07:40:14.594Z,15
2018-01-31T07:40:40.697Z,15
2018-01-31T07:41:06.809Z,15
2018-01-31T07:41:32.906Z,10
2018-01-31T07:41:59.006Z,10
2018-01-31T07:42:25.109Z,15
2018-01-31T07:42:51.206Z,20
2018-01-31T07:43:17.304Z,20
2018-01-31T07:43:43.407Z,20
2018-01-31T07:44:09.508Z,15
2018-01-31T07:44:35.611Z,15
2018-01-31T07:45:01.714Z,15
2018-01-31T07:45:28.998Z,25
2018-01-31T07:45:55.020Z,25
2018-01-31T07:46:21.127Z,20
2018-01-31T07:46:47.228Z,20
2018-01-31T07:47:13.329Z,25
2018-01-31T07:47:39.434Z,25
2018-01-31T07:48:05.527Z,25
2018-01-31T07:48:31.631Z,25
2018-01-31T07:48:57.734Z,25
2018-01-31T07:49:23.841Z,25
2018-01-31T07:49:49.944Z,20
2018-01-31T07:50:16.047Z,25
2018-01-31T07:50:42.143Z,25
2018-01-31T07:51:08.287Z,25
2018-01-31T07:51:34.343Z,30
2018-01-31T07:52:00.448Z,30
2018-01-31T07:52:26.549Z,30
2018-01-31T07:52:52.648Z,30
2018-01-31T07:53:18.754Z,30
2018-01-31T07:53:44.852Z,35
2018-01-31T07:54:10.968Z,40
2018-01-31T07:54:37.070Z,35
2018-01-31T07:55:03.178Z,40
2018-01-31T07:55:29.274Z,40
2018-01-31T07:55:55.373Z,45
2018-01-31T07:56:21.481Z,40
2018-01-31T07:56:47.580Z,40
2018-01-31T07:57:13.688Z,45
2018-01-31T07:57:39.782Z,50
2018-01-31T07:58:05.888Z,45
2018-01-31T07:58:31.989Z,55
2018-01-31T07:58:58.086Z,50
2018-01-31T07:59:24.194Z,45
2018-01-31T07:59:50.289Z,45
2018-01-31T08:00:16.388Z,45
2018-01-31T08:00:42.513Z,35
2018-01-31T08:01:08.618Z,30
2018-01-31T08:01:34.716Z,30
2018-01-31T08:02:00.820Z,25
2018-01-31T08:02:26.920Z,25
2018-01-31T08:02:53.028Z,30
2018-01-31T08:03:19.124Z,30
2018-01-31T08:03:45.228Z,30
2018-01-31T08:04:11.332Z,30
2018-01-31T08:04:37.429Z,25
2018-01-31T08:05:03.534Z,25
2018-01-31T08:05:29.637Z,30
2018-01-31T08:05:55.732Z,20
2018-01-31T08:06:21.832Z,20
2018-01-31T08:06:47.932Z,15
2018-01-31T08:07:14.032Z,15
2018-01-31T08:07:40.153Z,20
2018-01-31T08:08:06.275Z,20
2018-01-31T08:08:32.374Z,25
2018-01-31T08:08:58.473Z,25
2018-01-31T08:09:24.582Z,25
2018-01-31T08:09:50.686Z,25
2018-01-31T08:10:16.785Z,25
2018-01-31T08:10:42.884Z,25
2018-01-31T08:11:08.989Z,20
2018-01-31T08:11:35.091Z,15
2018-01-31T08:12:01.189Z,20
2018-01-31T08:12:27.296Z,20
2018-01-31T08:12:53.394Z,25
2018-01-31T08:13:19.501Z,25
2018-01-31T08:13:45.634Z,30
2018-01-31T08:14:11.741Z,30
2018-01-31T08:14:37.852Z,25
2018-01-31T08:15:03.951Z,20
2018-01-31T08:15:30.052Z,20
2018-01-31T08:15:56.149Z,20
2018-01-31T08:16:22.263Z,25